This is the latest recevied weather packets stored in our database for station/object SM2NLD. If no packets are shown the sender has not sent any weather packets the latest 1 day(s).
| Time | Temp. | Humidity | Pressure | Rain* | Wind** | Luminosity | Snow |
|---|---|---|---|---|---|---|---|
| 1778094442 | 1.67° C | 11% | 999.7 hPa | 0 mm | - | - | - |
| 1778094280 | 1.67° C | 11% | 999.7 hPa | 0 mm | - | - | - |
| 1778093104 | 1.67° C | 11% | 999.6 hPa | 0 mm | - | - | - |
| 1778092023 | 1.67° C | 11% | 999.6 hPa | 0 mm | - | - | - |
| 1778088578 | 3.33° C | 11% | 999.2 hPa | 0 mm | - | - | - |
| 1778084679 | 3.33° C | 11% | 998.8 hPa | 0 mm | - | - | - |
| 1778084379 | 3.89° C | 11% | 998.7 hPa | 0 mm | - | - | - |
| 1778083479 | 2.78° C | 11% | 998.8 hPa | 0 mm | - | - | - |
| 1778083179 | 2.78° C | 11% | 998.8 hPa | 0 mm | - | - | - |
| 1778082879 | 2.78° C | 11% | 998.7 hPa | 0 mm | - | - | - |
| 1778082441 | 3.33° C | 11% | 998.7 hPa | 0 mm | - | - | - |
| 1778082279 | 3.89° C | 11% | 998.5 hPa | 0 mm | - | - | - |
| 1778081379 | 3.89° C | 11% | 998.4 hPa | 0 mm | - | - | - |
| 1778081241 | 3.89° C | 11% | 998.4 hPa | 0 mm | - | - | - |
| 1778080780 | 4.44° C | 11% | 998.3 hPa | 0 mm | - | - | - |
| 1778080480 | 4.44° C | 11% | 998.3 hPa | 0 mm | - | - | - |
| 1778080180 | 4.44° C | 11% | 998.4 hPa | 0 mm | - | - | - |
| 1778080144 | 4.44° C | 11% | 998.4 hPa | 0 mm | - | - | - |
| 1778079580 | 3.89° C | 11% | 998.4 hPa | 0 mm | - | - | - |
| 1778079280 | 3.89° C | 11% | 998.4 hPa | 0 mm | - | - | - |
| 1778078904 | 3.89° C | 11% | 998.3 hPa | 0 mm | - | - | - |
| 1778078304 | 3.33° C | 11% | 998.3 hPa | 0 mm | - | - | - |
| 1778078004 | 3.33° C | 11% | 998.4 hPa | 0 mm | - | - | - |
| 1778077704 | 2.78° C | 11% | 998.5 hPa | 0 mm | - | - | - |
| 1778077642 | 2.78° C | 11% | 998.4 hPa | 0 mm | - | - | - |
* Rain latest hour (hover to see other rain measurements)
** Current wind speed in m/s (hover to see current wind gust speed)